createdAt,value
2022-11-19T00:01:26.446Z,21.73
2022-11-19T00:03:54.125Z,20.35
2022-11-19T00:06:23.884Z,22.00
2022-11-19T00:08:51.320Z,20.02
2022-11-19T00:11:39.307Z,17.63
2022-11-19T00:14:07.750Z,20.30
2022-11-19T00:16:35.031Z,21.30
2022-11-19T00:19:03.544Z,23.23
2022-11-19T00:21:30.870Z,21.88
2022-11-19T00:23:58.800Z,20.15
2022-11-19T00:26:26.437Z,19.33
2022-11-19T00:28:55.262Z,22.75
2022-11-19T00:31:23.329Z,23.15
2022-11-19T00:33:51.095Z,23.00
2022-11-19T00:36:18.273Z,23.42
2022-11-19T00:38:45.546Z,21.83
2022-11-19T00:41:12.780Z,21.27
2022-11-19T00:43:49.719Z,15.10
2022-11-19T00:46:21.223Z,20.83
2022-11-19T00:48:50.243Z,17.42
2022-11-19T00:51:18.949Z,21.50
2022-11-19T00:53:46.959Z,22.63
2022-11-19T00:56:17.670Z,18.42
2022-11-19T00:58:46.899Z,22.45
2022-11-19T01:01:16.835Z,22.02
2022-11-19T01:03:47.448Z,20.35
2022-11-19T01:06:19.302Z,19.52
2022-11-19T01:08:48.706Z,16.90
2022-11-19T01:11:25.189Z,17.33
2022-11-19T01:13:52.594Z,21.20
2022-11-19T01:16:22.992Z,17.10
2022-11-19T01:18:51.044Z,16.33
2022-11-19T01:21:20.045Z,18.95
2022-11-19T01:23:48.102Z,13.98
2022-11-19T01:26:15.711Z,17.98
2022-11-19T01:28:44.208Z,16.05
2022-11-19T01:31:15.540Z,19.98
2022-11-19T01:33:43.517Z,16.17
2022-11-19T01:36:16.843Z,15.95
2022-11-19T01:38:44.410Z,15.07
2022-11-19T01:41:11.356Z,16.08
2022-11-19T01:43:41.796Z,18.40
2022-11-19T01:46:10.253Z,23.15
2022-11-19T01:48:41.370Z,18.30
2022-11-19T01:51:28.280Z,19.23
2022-11-19T01:54:00.449Z,19.73
2022-11-19T01:56:29.877Z,23.02
2022-11-19T01:59:03.865Z,22.50
2022-11-19T02:01:32.439Z,23.75
2022-11-19T02:04:04.852Z,22.20
2022-11-19T02:06:33.642Z,21.98
2022-11-19T02:09:01.344Z,19.35
2022-11-19T02:11:52.389Z,17.35
2022-11-19T02:15:07.358Z,19.85
2022-11-19T02:17:55.356Z,17.45
2022-11-19T02:20:44.335Z,18.73
2022-11-19T02:23:30.159Z,16.83
2022-11-19T02:26:08.567Z,18.23
2022-11-19T02:28:41.316Z,18.63
2022-11-19T02:31:16.624Z,16.65
2022-11-19T02:33:58.066Z,18.65
2022-11-19T02:37:10.623Z,25.88
2022-11-19T02:39:54.070Z,14.93
2022-11-19T02:42:28.217Z,17.70
2022-11-19T02:45:24.244Z,18.48
2022-11-19T02:47:56.720Z,16.80
2022-11-19T02:50:30.230Z,16.40
2022-11-19T02:52:58.609Z,17.20
2022-11-19T02:55:25.766Z,18.73
2022-11-19T02:58:08.366Z,16.70
2022-11-19T03:01:05.551Z,16.52
2022-11-19T03:03:52.362Z,18.20
2022-11-19T03:06:25.446Z,17.40
2022-11-19T03:08:53.411Z,17.67
2022-11-19T03:11:31.527Z,18.88
2022-11-19T03:14:41.500Z,17.98
2022-11-19T03:17:21.742Z,18.55
2022-11-19T03:19:57.309Z,12.73
2022-11-19T03:22:34.958Z,24.05
2022-11-19T03:25:06.950Z,17.00
2022-11-19T03:30:15.256Z,16.92
2022-11-19T03:33:04.086Z,14.38
2022-11-19T03:35:48.072Z,16.38
2022-11-19T03:38:21.854Z,18.00
2022-11-19T03:40:50.663Z,14.63
2022-11-19T03:43:21.513Z,15.18
2022-11-19T03:45:52.838Z,14.43
2022-11-19T03:48:22.339Z,15.00
2022-11-19T03:50:52.280Z,17.08
2022-11-19T03:53:21.351Z,17.73
2022-11-19T03:55:58.083Z,15.23
2022-11-19T03:58:26.609Z,17.55
2022-11-19T04:00:54.359Z,15.20
2022-11-19T04:03:30.934Z,17.23
2022-11-19T04:05:58.097Z,17.45
2022-11-19T04:08:25.027Z,18.95
2022-11-19T04:10:52.396Z,14.93
2022-11-19T04:13:19.386Z,15.80
2022-11-19T04:15:46.711Z,23.30
2022-11-19T04:18:13.661Z,22.25
2022-11-19T04:20:42.662Z,20.15
2022-11-19T04:23:09.776Z,23.23
2022-11-19T04:25:38.117Z,22.85
2022-11-19T04:28:04.906Z,19.70
2022-11-19T04:30:32.141Z,22.80
2022-11-19T04:32:58.973Z,21.10
2022-11-19T04:35:26.291Z,19.92
2022-11-19T04:37:53.197Z,21.35
2022-11-19T04:40:20.419Z,25.30
2022-11-19T04:42:47.501Z,17.95
2022-11-19T04:45:14.859Z,21.83
2022-11-19T04:47:41.705Z,21.73
2022-11-19T04:50:09.477Z,28.63
2022-11-19T04:52:40.914Z,23.73
2022-11-19T04:55:10.851Z,25.98
2022-11-19T04:57:37.812Z,20.17
2022-11-19T05:00:05.995Z,26.25
2022-11-19T05:02:33.259Z,25.15
2022-11-19T05:05:00.446Z,20.65
2022-11-19T05:07:27.421Z,19.30
2022-11-19T05:09:54.611Z,22.13
2022-11-19T05:12:22.341Z,19.42
2022-11-19T05:14:49.611Z,20.42
2022-11-19T05:17:16.601Z,16.98
2022-11-19T05:19:43.881Z,19.88
2022-11-19T05:22:10.858Z,19.00
2022-11-19T05:24:38.130Z,20.23
2022-11-19T05:27:05.049Z,21.30
2022-11-19T05:29:32.349Z,20.75
2022-11-19T05:31:59.352Z,22.13
2022-11-19T05:34:26.543Z,20.00
2022-11-19T05:36:53.645Z,20.40
2022-11-19T05:39:22.317Z,20.10
2022-11-19T05:41:49.882Z,19.02
2022-11-19T05:44:18.289Z,27.98
2022-11-19T05:46:45.785Z,23.13
2022-11-19T05:49:12.989Z,23.63
2022-11-19T05:51:40.045Z,20.45
2022-11-19T05:54:07.419Z,23.05
2022-11-19T05:56:34.845Z,25.63
2022-11-19T05:59:02.154Z,23.05
2022-11-19T06:01:30.355Z,20.92
2022-11-19T06:03:57.579Z,23.48
2022-11-19T06:06:25.653Z,22.77
2022-11-19T06:08:53.109Z,24.73
2022-11-19T06:11:38.632Z,19.60
2022-11-19T06:14:05.933Z,20.38
2022-11-19T06:16:32.814Z,21.40
2022-11-19T06:19:00.012Z,21.95
2022-11-19T06:21:26.816Z,25.48
2022-11-19T06:23:53.959Z,26.67
2022-11-19T06:26:29.349Z,21.83
2022-11-19T06:28:57.638Z,23.95
2022-11-19T06:31:24.942Z,22.77
2022-11-19T06:33:53.630Z,24.40
2022-11-19T06:36:21.478Z,28.25
2022-11-19T06:38:49.499Z,25.52
2022-11-19T06:41:17.336Z,22.05
2022-11-19T06:43:44.833Z,27.02
2022-11-19T06:46:13.175Z,24.42
2022-11-19T06:48:40.765Z,25.95
2022-11-19T06:51:08.512Z,26.60
2022-11-19T06:53:35.801Z,27.05
2022-11-19T06:56:05.815Z,31.95
2022-11-19T06:58:33.528Z,22.43
2022-11-19T07:01:00.981Z,23.05
2022-11-19T07:03:28.406Z,25.33
2022-11-19T07:05:59.479Z,28.42
2022-11-19T07:10:54.530Z,26.30
2022-11-19T07:13:22.024Z,25.83
2022-11-19T07:15:49.210Z,24.30
2022-11-19T07:18:16.520Z,26.15
2022-11-19T07:20:45.627Z,28.52
2022-11-19T07:23:13.251Z,31.38
2022-11-19T07:25:40.111Z,27.73
2022-11-19T07:28:08.509Z,29.90
2022-11-19T07:30:35.387Z,29.58
2022-11-19T07:33:03.221Z,32.08
2022-11-19T07:35:30.183Z,34.65
2022-11-19T07:37:57.424Z,35.05
2022-11-19T07:40:25.326Z,29.65
2022-11-19T07:42:53.352Z,37.72
2022-11-19T07:45:22.392Z,35.08
2022-11-19T07:47:49.649Z,37.30
2022-11-19T07:50:17.761Z,34.00
2022-11-19T07:52:45.118Z,35.33
2022-11-19T07:55:12.322Z,34.28
2022-11-19T07:57:39.636Z,31.52
2022-11-19T08:00:07.452Z,43.10
2022-11-19T08:02:41.105Z,35.60
2022-11-19T08:05:08.601Z,31.63
2022-11-19T08:07:37.582Z,31.70
2022-11-19T08:10:07.317Z,29.27
2022-11-19T08:12:35.001Z,25.08
2022-11-19T08:15:01.955Z,27.85
2022-11-19T08:17:47.915Z,22.38
2022-11-19T08:20:17.039Z,22.85
2022-11-19T08:22:44.361Z,17.52
2022-11-19T08:25:11.423Z,24.92
2022-11-19T08:27:39.258Z,22.63
2022-11-19T08:30:07.345Z,25.95
2022-11-19T08:32:36.819Z,21.55
2022-11-19T08:35:03.917Z,22.63
2022-11-19T08:37:31.284Z,18.95
2022-11-19T08:39:58.243Z,23.73
2022-11-19T08:42:44.214Z,29.92
2022-11-19T08:45:12.957Z,21.38
2022-11-19T08:47:42.832Z,19.17
2022-11-19T08:50:10.128Z,21.73
2022-11-19T08:52:37.713Z,25.38
2022-11-19T08:55:05.203Z,20.65
2022-11-19T08:57:32.584Z,21.58
2022-11-19T09:00:06.173Z,26.27
2022-11-19T09:02:36.287Z,20.23
2022-11-19T09:05:03.344Z,24.10
2022-11-19T09:07:30.566Z,26.13
2022-11-19T09:09:57.804Z,22.85
2022-11-19T09:12:25.923Z,19.73
2022-11-19T09:14:52.912Z,21.63
2022-11-19T09:17:20.168Z,13.68
2022-11-19T09:19:46.978Z,16.08
2022-11-19T09:22:14.074Z,19.13
2022-11-19T09:24:40.956Z,22.15
2022-11-19T09:27:08.046Z,17.25
2022-11-19T09:29:34.852Z,18.00
2022-11-19T09:32:02.451Z,16.80
2022-11-19T09:34:30.256Z,27.48
2022-11-19T09:36:58.927Z,16.30
2022-11-19T09:39:26.041Z,22.95
2022-11-19T09:42:35.340Z,24.58
2022-11-19T09:45:39.665Z,20.63
2022-11-19T09:48:18.028Z,17.08
2022-11-19T09:50:56.277Z,15.05
2022-11-19T09:53:25.226Z,20.25
2022-11-19T09:55:53.922Z,19.45
2022-11-19T09:58:41.740Z,15.88
2022-11-19T10:01:17.623Z,15.10
2022-11-19T10:03:53.955Z,19.90
2022-11-19T10:06:46.276Z,20.55
2022-11-19T10:09:27.346Z,23.42
2022-11-19T10:12:00.359Z,19.73
2022-11-19T10:14:40.537Z,19.95
2022-11-19T10:17:19.742Z,20.02
2022-11-19T10:20:08.720Z,18.80
2022-11-19T10:23:02.033Z,16.17
2022-11-19T10:25:36.882Z,22.77
2022-11-19T10:28:18.141Z,21.92
2022-11-19T10:30:51.227Z,20.42
2022-11-19T10:33:31.291Z,16.48
2022-11-19T10:36:07.804Z,19.05
2022-11-19T10:38:55.854Z,17.38
2022-11-19T10:41:45.880Z,19.00
2022-11-19T10:44:43.245Z,20.17
2022-11-19T10:47:22.638Z,18.77
2022-11-19T10:49:56.724Z,22.33
2022-11-19T10:52:31.667Z,22.83
2022-11-19T10:55:18.243Z,19.92
2022-11-19T10:57:48.688Z,17.85
2022-11-19T11:00:17.745Z,15.60
2022-11-19T11:02:57.634Z,18.67
2022-11-19T11:05:24.758Z,18.45
2022-11-19T11:08:01.169Z,15.68
2022-11-19T11:10:54.709Z,15.88
2022-11-19T11:13:59.925Z,12.13
2022-11-19T11:16:47.096Z,13.77
2022-11-19T11:19:19.746Z,16.23
2022-11-19T11:21:54.572Z,15.82
2022-11-19T11:24:30.433Z,11.40
2022-11-19T11:27:21.279Z,8.27
2022-11-19T11:29:48.651Z,13.50
2022-11-19T11:32:30.902Z,6.97
2022-11-19T11:35:02.329Z,10.25
2022-11-19T11:37:33.972Z,7.63
2022-11-19T11:40:01.465Z,14.43
2022-11-19T11:42:29.725Z,12.52
2022-11-19T11:45:01.680Z,11.30
2022-11-19T11:47:35.337Z,12.85
2022-11-19T11:50:17.328Z,13.88
2022-11-19T11:55:38.638Z,10.00
2022-11-19T11:58:24.318Z,13.02
2022-11-19T12:00:55.395Z,12.05
2022-11-19T12:03:23.961Z,14.05
2022-11-19T12:06:16.278Z,13.50
2022-11-19T12:08:51.916Z,8.80
2022-11-19T12:11:57.305Z,12.20
2022-11-19T12:14:52.203Z,10.80
2022-11-19T12:17:30.333Z,14.57
2022-11-19T12:20:15.414Z,9.93
2022-11-19T12:22:49.575Z,14.80
2022-11-19T12:25:47.148Z,10.95
2022-11-19T12:28:26.162Z,9.88
2022-11-19T12:31:11.797Z,11.90
2022-11-19T12:33:52.231Z,12.73
2022-11-19T12:36:52.243Z,10.93
2022-11-19T12:39:32.914Z,13.43
2022-11-19T12:42:36.143Z,11.82
2022-11-19T12:45:17.948Z,16.80
2022-11-19T12:48:14.278Z,7.43
2022-11-19T12:50:55.715Z,17.08
2022-11-19T12:53:56.476Z,11.00
2022-11-19T12:56:41.306Z,10.57
2022-11-19T12:59:47.787Z,11.05
2022-11-19T13:02:27.765Z,8.43
2022-11-19T13:05:05.724Z,10.05
2022-11-19T13:07:40.892Z,11.65
2022-11-19T13:10:21.179Z,9.85
2022-11-19T13:12:52.922Z,8.55
2022-11-19T13:15:30.407Z,8.88
2022-11-19T13:18:02.562Z,9.23
2022-11-19T13:21:28.045Z,9.50
2022-11-19T13:23:57.116Z,12.43
2022-11-19T13:26:29.793Z,10.75
2022-11-19T13:29:19.395Z,6.75
2022-11-19T13:31:54.153Z,7.68
2022-11-19T13:34:24.551Z,10.27
2022-11-19T13:37:06.607Z,10.80
2022-11-19T13:39:41.709Z,7.65
2022-11-19T13:42:29.247Z,12.73
2022-11-19T13:44:56.602Z,12.45
2022-11-19T13:47:36.565Z,12.68
2022-11-19T13:50:17.195Z,9.02
2022-11-19T13:53:13.096Z,9.02
2022-11-19T13:55:42.027Z,9.45
2022-11-19T13:58:15.254Z,11.90
2022-11-19T14:01:06.796Z,8.80
2022-11-19T14:03:50.193Z,7.78
2022-11-19T14:06:39.927Z,13.45
2022-11-19T14:09:23.301Z,6.30
2022-11-19T14:12:10.918Z,12.02
2022-11-19T14:15:15.851Z,12.70
2022-11-19T14:18:14.049Z,10.68
2022-11-19T14:21:03.522Z,13.43
2022-11-19T14:24:07.353Z,10.55
2022-11-19T14:26:40.437Z,9.48
2022-11-19T14:29:25.706Z,13.68
2022-11-19T14:32:06.305Z,11.27
2022-11-19T14:35:02.443Z,13.15
2022-11-19T14:37:41.549Z,16.27
2022-11-19T14:40:23.455Z,16.33
2022-11-19T14:43:21.241Z,21.60
2022-11-19T14:46:10.658Z,25.23
2022-11-19T14:48:39.471Z,18.30
2022-11-19T14:51:12.376Z,22.85
2022-11-19T14:53:54.676Z,19.20
2022-11-19T14:56:23.625Z,21.83
2022-11-19T14:59:07.863Z,17.77
2022-11-19T15:01:51.475Z,20.45
2022-11-19T15:04:22.254Z,18.85
2022-11-19T15:06:50.889Z,17.70
2022-11-19T15:09:52.900Z,22.35
2022-11-19T15:12:21.745Z,19.02
2022-11-19T15:15:09.141Z,19.30
2022-11-19T15:17:36.675Z,21.05
2022-11-19T15:20:28.660Z,19.48
2022-11-19T15:23:11.452Z,18.27
2022-11-19T15:26:08.631Z,22.27
2022-11-19T15:29:26.127Z,24.70
2022-11-19T15:32:27.705Z,23.38
2022-11-19T15:35:23.949Z,23.87
2022-11-19T15:37:54.648Z,22.27
2022-11-19T15:40:29.806Z,17.00
2022-11-19T15:43:12.018Z,17.38
2022-11-19T15:45:54.392Z,20.45
2022-11-19T15:48:35.450Z,25.52
2022-11-19T15:51:03.866Z,21.58
2022-11-19T15:53:31.400Z,23.98
2022-11-19T15:56:18.249Z,19.38
2022-11-19T15:58:47.297Z,23.75
2022-11-19T16:01:17.240Z,29.05
2022-11-19T16:03:45.231Z,20.83
2022-11-19T16:06:29.193Z,22.10
2022-11-19T16:09:00.553Z,20.35
2022-11-19T16:11:48.824Z,21.55
2022-11-19T16:14:43.933Z,26.65
2022-11-19T16:17:39.962Z,23.33
2022-11-19T16:20:11.056Z,18.85
2022-11-19T16:23:13.745Z,22.00
2022-11-19T16:25:42.306Z,24.75
2022-11-19T16:28:23.865Z,24.33
2022-11-19T16:30:54.481Z,21.05
2022-11-19T16:33:24.257Z,27.73
2022-11-19T16:35:53.765Z,25.27
2022-11-19T16:38:42.592Z,23.70
2022-11-19T16:41:32.047Z,27.17
2022-11-19T16:44:02.710Z,23.55
2022-11-19T16:46:31.450Z,26.95
2022-11-19T16:49:48.033Z,25.20
2022-11-19T16:52:34.441Z,20.67
2022-11-19T16:55:02.836Z,19.63
2022-11-19T16:57:32.846Z,28.30
2022-11-19T17:00:15.563Z,25.23
2022-11-19T17:02:45.625Z,26.60
2022-11-19T17:05:15.771Z,27.70
2022-11-19T17:07:48.331Z,25.33
2022-11-19T17:10:30.679Z,24.90
2022-11-19T17:13:06.716Z,26.60
2022-11-19T17:15:44.867Z,27.85
2022-11-19T17:18:16.837Z,28.10
2022-11-19T17:20:44.557Z,25.58
2022-11-19T17:23:23.681Z,28.48
2022-11-19T17:25:55.845Z,27.98
2022-11-19T17:28:47.073Z,26.88
2022-11-19T17:31:26.537Z,29.05
2022-11-19T17:33:56.478Z,29.02
2022-11-19T17:36:26.536Z,24.52
2022-11-19T17:38:54.779Z,23.17
2022-11-19T17:41:43.619Z,28.08
2022-11-19T17:44:34.941Z,25.52
2022-11-19T17:47:23.581Z,27.25
2022-11-19T17:49:51.981Z,24.90
2022-11-19T17:52:30.500Z,27.45
2022-11-19T17:55:06.397Z,29.27
2022-11-19T17:57:36.173Z,26.77
2022-11-19T18:00:06.275Z,26.55
2022-11-19T18:02:33.564Z,26.55
2022-11-19T18:05:01.207Z,29.77
2022-11-19T18:07:28.280Z,27.58
2022-11-19T18:09:55.483Z,30.67
2022-11-19T18:12:22.687Z,22.92
2022-11-19T18:14:50.609Z,23.98
2022-11-19T18:17:17.978Z,28.35
2022-11-19T18:19:45.436Z,33.22
2022-11-19T18:22:17.707Z,28.25
2022-11-19T18:24:48.479Z,29.95
2022-11-19T18:27:16.540Z,34.15
2022-11-19T18:29:43.978Z,34.17
2022-11-19T18:32:12.568Z,31.52
2022-11-19T18:34:39.859Z,31.65
2022-11-19T18:37:07.020Z,36.30
2022-11-19T18:39:34.430Z,35.80
2022-11-19T18:42:01.412Z,30.58
2022-11-19T18:44:34.550Z,36.25
2022-11-19T18:47:04.632Z,33.17
2022-11-19T18:49:34.499Z,34.20
2022-11-19T18:52:06.369Z,29.48
2022-11-19T18:54:35.785Z,35.13
2022-11-19T18:57:03.690Z,35.42
2022-11-19T18:59:31.039Z,31.15
2022-11-19T19:01:58.237Z,29.83
2022-11-19T19:04:25.979Z,36.08
2022-11-19T19:06:53.452Z,34.05
2022-11-19T19:09:25.423Z,31.23
2022-11-19T19:12:14.002Z,29.50
2022-11-19T19:14:47.140Z,34.42
2022-11-19T19:17:15.430Z,31.10
2022-11-19T19:19:42.530Z,32.13
2022-11-19T19:22:09.946Z,33.03
2022-11-19T19:24:38.384Z,33.63
2022-11-19T19:27:06.029Z,27.50
2022-11-19T19:29:33.980Z,29.55
2022-11-19T19:32:00.899Z,32.97
2022-11-19T19:34:29.652Z,30.42
2022-11-19T19:36:56.935Z,28.20
2022-11-19T19:39:24.942Z,35.55
2022-11-19T19:41:52.689Z,36.60
2022-11-19T19:44:20.676Z,40.10
2022-11-19T19:46:49.039Z,42.95
2022-11-19T19:49:16.468Z,35.83
2022-11-19T19:51:43.638Z,39.92
2022-11-19T19:54:10.752Z,45.28
2022-11-19T19:56:37.699Z,39.42
2022-11-19T19:59:05.123Z,41.95
2022-11-19T20:01:34.897Z,43.00
2022-11-19T20:04:08.359Z,45.30
2022-11-19T20:06:38.413Z,47.20
2022-11-19T20:09:09.491Z,52.22
2022-11-19T20:11:37.002Z,52.53
2022-11-19T20:14:22.486Z,50.65
2022-11-19T20:16:50.236Z,52.42
2022-11-19T20:19:17.609Z,52.65
2022-11-19T20:21:47.113Z,59.05
2022-11-19T20:24:14.189Z,60.38
2022-11-19T20:26:42.595Z,58.13
2022-11-19T20:29:14.232Z,59.33
2022-11-19T20:31:46.324Z,57.15
2022-11-19T20:34:14.218Z,55.72
2022-11-19T20:36:42.207Z,67.10
2022-11-19T20:39:10.060Z,54.30
2022-11-19T20:41:55.945Z,56.35
2022-11-19T20:44:25.704Z,55.60
2022-11-19T20:46:54.712Z,60.47
2022-11-19T20:49:24.811Z,60.25
2022-11-19T20:51:53.817Z,56.03
2022-11-19T20:54:21.823Z,58.08
2022-11-19T20:56:51.212Z,59.83
2022-11-19T20:59:19.463Z,61.97
2022-11-19T21:01:49.478Z,70.82
2022-11-19T21:04:18.038Z,60.30
2022-11-19T21:06:46.182Z,63.03
2022-11-19T21:09:14.961Z,53.47
2022-11-19T21:11:42.926Z,58.97
2022-11-19T21:14:10.054Z,53.67
2022-11-19T21:16:37.706Z,55.00
2022-11-19T21:19:04.990Z,54.80
2022-11-19T21:21:32.621Z,54.17
2022-11-19T21:23:59.771Z,66.72
2022-11-19T21:26:28.302Z,60.63
2022-11-19T21:28:57.438Z,56.72
2022-11-19T21:31:48.999Z,64.43
2022-11-19T21:34:18.962Z,53.15
2022-11-19T21:36:47.923Z,52.27
2022-11-19T21:39:17.611Z,51.80
2022-11-19T21:41:45.459Z,46.75
2022-11-19T21:44:16.824Z,57.90
2022-11-19T21:47:06.283Z,47.03
2022-11-19T21:49:33.533Z,46.22
2022-11-19T21:52:00.617Z,60.92
2022-11-19T21:54:27.766Z,57.35
2022-11-19T21:56:54.568Z,55.30
2022-11-19T21:59:22.493Z,52.83
2022-11-19T22:01:54.516Z,57.72
2022-11-19T22:04:22.101Z,48.78
2022-11-19T22:06:49.225Z,52.70
2022-11-19T22:09:16.974Z,50.20
2022-11-19T22:11:43.848Z,49.20
2022-11-19T22:14:11.747Z,56.35
2022-11-19T22:16:39.969Z,44.20
2022-11-19T22:19:07.440Z,54.25
2022-11-19T22:21:35.438Z,56.05
2022-11-19T22:24:03.092Z,48.83
2022-11-19T22:26:30.864Z,45.80
2022-11-19T22:28:58.741Z,56.20
2022-11-19T22:31:25.952Z,44.67
2022-11-19T22:33:53.984Z,54.65
2022-11-19T22:36:23.003Z,47.47
2022-11-19T22:38:51.535Z,56.35
2022-11-19T22:41:20.361Z,48.13
2022-11-19T22:43:48.840Z,53.75
2022-11-19T22:46:16.334Z,54.13
2022-11-19T22:48:43.821Z,47.72
2022-11-19T22:51:16.435Z,51.30
2022-11-19T22:53:44.849Z,50.17
2022-11-19T22:56:14.636Z,46.42
2022-11-19T22:58:42.325Z,47.25
2022-11-19T23:01:28.175Z,51.70
2022-11-19T23:03:58.367Z,50.78
2022-11-19T23:06:26.335Z,48.60
2022-11-19T23:08:54.655Z,46.67
2022-11-19T23:11:42.217Z,44.30
2022-11-19T23:14:13.465Z,48.58
2022-11-19T23:16:41.613Z,44.78
2022-11-19T23:19:10.164Z,46.55
2022-11-19T23:21:37.636Z,46.92
2022-11-19T23:24:05.235Z,50.47
2022-11-19T23:26:33.700Z,48.80
2022-11-19T23:29:02.361Z,47.58
2022-11-19T23:31:35.777Z,44.35
2022-11-19T23:34:03.443Z,49.40
2022-11-19T23:36:33.541Z,46.28
2022-11-19T23:39:03.983Z,43.83
2022-11-19T23:41:34.487Z,47.13
2022-11-19T23:46:33.035Z,46.58
2022-11-19T23:49:01.351Z,52.58
2022-11-19T23:51:30.684Z,49.60
2022-11-19T23:53:58.945Z,45.65
2022-11-19T23:56:28.991Z,53.20
2022-11-19T23:58:56.742Z,51.97
